Weather observations for the past three days for
Decatur, Pryor Field
Imperial (Metric)
Date Time (cdt) Wind (mph) Vis. (mi.) Weather Sky Cond. Temperature (ºF) Relative Humidity Wind Chill (°F) Heat Index (°F) Pressure Precipitation (in)
Air Dwpt 6 hour altimeter (in) sea level (mb) 1 hr 3 hr 6 hr
Max. Min.
04 01:53 Calm 10.00 Fair CLR 48.9 45 86% 30.03 1016.7
04 00:53 SE 5 10.00 Fair CLR 52 45 68 51.1 77% 30.04 1017.1
03 23:53 Calm 10.00 Fair CLR 52 46 80% 30.06 1017.6
03 22:53 SE 6 10.00 Fair CLR 55 46.9 74% 30.05 1017.3
03 21:53 SE 3 10.00 Fair CLR 53.1 45 74% 30.07 1018.2
03 20:53 Calm 10.00 Fair CLR 54 45 72% 30.06 1017.7
03 19:53 Calm 10.00 Fair CLR 57.9 44.1 60% 30.04 1017.1
03 18:53 Calm 10.00 Fair CLR 68 39.9 70 64 36% 30.05 1017.3
03 17:53 NW 7 10.00 Fair CLR 70 37 30% 30.06 1017.7
03 16:53 W 8 10.00 Fair CLR 70 36 29% 30.07 1018.0
03 15:53 NW 9 10.00 Fair CLR 69.1 37 31% 30.09 1018.7
03 14:53 Vrbl 7 10.00 Fair CLR 68 39.9 36% 30.12 1019.9
03 13:53 N 5 10.00 Fair CLR 66 39.9 39% 30.16 1021.0
03 12:53 W 5 10.00 Fair CLR 64 32 64.9 45 30% 30.17 1021.6
03 11:53 W 7 10.00 Fair CLR 62.1 34 35% 30.2 1022.4
03 10:53 W 3 10.00 Fair CLR 60.1 39.9 48% 30.2 1022.6
03 09:53 Calm 10.00 Fair CLR 57.9 43 58% 30.21 1022.8
03 08:53 S 3 10.00 Fair CLR 53.1 45 74% 30.21 1022.8
03 07:53 Calm 10.00 Fair CLR 51.1 44.1 77% 30.2 1022.3
03 06:53 Calm 9.00 Fair CLR 45 43 48.9 42.1 93% 30.19 1022.1
03 05:53 Calm 8.00 Fair CLR 43 41 93% 30.16 1021.2
03 04:53 Calm 9.00 Fair CLR 42.1 39.9 92% 30.15 1020.8
03 03:53 Calm 10.00 Fair CLR 44.1 41 89% 30.14 1020.6
03 02:53 Calm 10.00 Fair CLR 45 42.1 90% 30.14 1020.5
03 01:53 Calm 10.00 Fair CLR 46 43 89% 30.13 1020.1
03 00:53 Calm 10.00 Fair CLR 48 43 64.9 48 83% 30.12 1019.8
02 23:53 N 5 10.00 Fair CLR 50 42.1 74% 49 30.11 1019.5
02 22:53 N 6 10.00 Fair CLR 52 42.1 69% 30.1 1019.1
02 21:53 N 10 10.00 Fair CLR 55 42.1 62% 30.09 1018.6
02 20:53 Calm 10.00 Fair CLR 55 44.1 67% 30.05 1017.3
02 19:53 N 8 10.00 Fair CLR 60.1 39.9 48% 30.03 1016.4
02 18:53 NW 10 10.00 A Few Clouds FEW090 64.9 37.9 70 64.9 37% 30.01 1015.8
02 17:53 NW 8 10.00 Overcast BKN085 OVC110 66 37 34% 30 1015.6
02 16:53 NW 9 10.00 Partly Cloudy SCT090 70 37 30% 29.99 1015.2
02 15:53 NW 14 G 18 10.00 Partly Cloudy SCT080 69.1 35.1 29% 29.99 1015.2
02 14:53 NW 12 G 26 10.00 Partly Cloudy SCT090 69.1 35.1 29% 30 1015.6
02 13:53 N 15 G 26 10.00 A Few Clouds FEW080 69.1 36 30% 30.02 1016.0
02 12:53 N 14 10.00 A Few Clouds FEW075 68 36 68 52 31% 30.03 1016.4
02 11:53 N 10 G 22 10.00 Fair CLR 66 37 34% 30.04 1016.9
02 10:53 N 14 10.00 Fair CLR 64 37 37% 30.05 1017.4
02 09:53 N 13 10.00 Fair CLR 60.1 37 42% 30.04 1017.0
02 08:53 N 12 10.00 Fair CLR 59 39 48% 30.03 1016.6
02 07:53 N 10 10.00 Fair CLR 55 39.9 57% 30.03 1016.5
02 06:53 N 6 10.00 Fair CLR 52 39 57 51.1 61% 30.01 1015.9
02 05:53 N 7 10.00 Fair CLR 51.1 39 64% 29.99 1015.3
02 04:53 N 7 10.00 Fair CLR 52 39 61% 29.98 1014.9
02 03:53 N 5 10.00 A Few Clouds FEW060 54 37.9 55% 29.98 1014.9
02 02:53 N 10 10.00 Partly Cloudy SCT055 55 37 51% 29.97 1014.6
02 01:53 N 13 10.00 Partly Cloudy SCT050 55.9 37 49% 30.01 1015.8
02 00:53 N 10 10.00 Overcast OVC050 57 36 64 57 45% 30.01 1015.9
01 23:53 N 9 10.00 A Few Clouds FEW050 57.9 36 44% 29.99 1015.2
01 22:53 N 9 10.00 Fair CLR 57.9 37.9 48% 29.98 1015.0
01 21:53 N 12 10.00 Fair CLR 60.1 45 58% 30 1015.5
01 20:53 N 12 10.00 Fair CLR 62.1 48 60% 29.97 1014.5
01 18:53 Calm 10.00 Fair CLR 64 52 69.1 64 65% 29.94 1013.5
01 17:53 Calm 10.00 Fair CLR 64.9 53.1 66% 29.93 1013.4
01 16:53 NE 5 10.00 Fair CLR 68 46 45% 29.91 1012.6
01 15:53 N 7 10.00 Fair CLR 68 44.1 42% 29.94 1013.5
01 14:53 N 5 10.00 Fair CLR 66.9 43 42% 29.98 1014.8
01 13:53 NW 6 10.00 Fair CLR 66 43 43% 30 1015.5
01 12:53 N 8 10.00 Fair CLR 64.9 43 66 50 45% 29.99 1015.2
01 11:53 N 13 10.00 Fair CLR 64.9 39.9 40% 30.02 1016.1
01 10:53 N 5 10.00 Fair CLR 63 44.1 50% 30 1015.7
01 09:53 Calm 10.00 Fair CLR 60.1 46 60% 30.02 1016.1
01 08:53 Calm 10.00 Fair CLR 57 45 64% 30.01 1015.8
01 07:53 N 7 10.00 Fair CLR 54 45 72% 29.99 1015.4
01 06:53 N 3 10.00 Fair CLR 50 46 55 48 86% 29.99 1015.5
01 05:53 Calm 10.00 Fair CLR 48.9 45 86% 29.96 1014.1
01 04:53 N 3 10.00 Fair CLR 52 43 72% 29.96 1014.1
01 03:53 N 3 10.00 Fair CLR 50 46 86% 29.96 1014.2
01 02:53 Calm 10.00 Fair CLR 52 43 72% 29.95 1013.9
Date Time (cdt) Wind (mph) Vis. (mi.) Weather Sky Cond. Air Dwpt Max. Min. Relative Humidity Wind Chill (°F) Heat Index (°F) altimeter (in) sea level (mb) 1 hr 3 hr 6 hr
6 hour
Temperature (ºF) Pressure Precipitation (in)